| time (UTC) | temp F | wind direction | speed knots | gust knots | rain 1hr in | rain 24hr in | rain mn in | humidity % | barometer mb |
| 20260906220135 | 78 | 43 | 7.0 | 9.6 | 0.00 | 0.00 | 0.00 | 65 | 1011.1 |
| 20260906215634 | 78 | 359 | 8.7 | 11.3 | 0.00 | 0.00 | 0.00 | 65 | 1011.0 |
| 20260906215133 | 77 | 19 | 7.8 | 10.4 | 0.00 | 0.00 | 0.00 | 67 | 1011.0 |
| 20260906214631 | 77 | 12 | 8.7 | 11.3 | 0.00 | 0.00 | 0.00 | 67 | 1011.0 |
| 20260906214126 | 76 | 30 | 9.6 | 12.2 | 0.00 | 0.00 | 0.00 | 68 | 1011.0 |
| 20260906213625 | 76 | 347 | 7.8 | 14.8 | 0.00 | 0.00 | 0.00 | 68 | 1011.0 |
| 20260906213120 | 76 | 25 | 8.7 | 12.2 | 0.00 | 0.00 | 0.00 | 68 | 1011.1 |
| 20260906212618 | 75 | 21 | 7.8 | 14.8 | 0.00 | 0.00 | 0.00 | 69 | 1011.0 |
| 20260906212114 | 76 | 10 | 9.6 | 12.2 | 0.00 | 0.00 | 0.00 | 68 | 1011.3 |
| 20260906211613 | 76 | 18 | 10.4 | 12.2 | 0.00 | 0.00 | 0.00 | 68 | 1011.2 |
| 20260906211108 | 75 | 1 | 11.3 | 14.8 | 0.00 | 0.00 | 0.00 | 69 | 1011.1 |
| 20260906210604 | 75 | 358 | 13.0 | 15.6 | 0.00 | 0.00 | 0.00 | 69 | 1011.1 |
| 20260906210059 | 75 | 11 | 13.0 | 15.6 | 0.00 | 0.00 | 0.00 | 69 | 1011.3 |
| 20260906205554 | 75 | 19 | 9.6 | 15.6 | 0.00 | 0.00 | 0.00 | 70 | 1011.4 |
| 20260906205050 | 75 | 16 | 11.3 | 16.5 | 0.00 | 0.00 | 0.00 | 70 | 1011.3 |
| 20260906204549 | 75 | 26 | 9.6 | 16.5 | 0.00 | 0.00 | 0.00 | 70 | 1011.2 |
| 20260906204044 | 75 | 5 | 11.3 | 18.2 | 0.00 | 0.00 | 0.00 | 69 | 1011.1 |
| 20260906203543 | 76 | 5 | 12.2 | 16.5 | 0.00 | 0.00 | 0.00 | 68 | 1011.3 |
| 20260906203039 | 77 | 10 | 9.6 | 14.8 | 0.00 | 0.00 | 0.00 | 67 | 1011.3 |
| 20260906202535 | 78 | 23 | 9.6 | 15.6 | 0.00 | 0.00 | 0.00 | 66 | 1011.3 |
| 20260906202030 | 78 | 19 | 7.0 | 10.4 | 0.00 | 0.00 | 0.00 | 65 | 1011.7 |
| 20260906201530 | 78 | 16 | 7.8 | 9.6 | 0.00 | 0.00 | 0.00 | 65 | 1011.4 |
| 20260906201030 | 78 | 19 | 10.4 | 10.4 | 0.00 | 0.00 | 0.00 | 65 | 1011.2 |
| 20260906200526 | 78 | 29 | 10.4 | 12.2 | 0.00 | 0.00 | 0.00 | 64 | 1011.2 |
| 20260906200022 | 79 | 49 | 5.2 | 10.4 | 0.00 | 0.00 | 0.00 | 63 | 1011.2 |
| 20260906195517 | 79 | 50 | 9.6 | 11.3 | 0.00 | 0.00 | 0.00 | 63 | 1011.3 |
| 20260906195013 | 79 | 47 | 3.5 | 8.7 | 0.00 | 0.00 | 0.00 | 63 | 1011.4 |
| 20260906194509 | 79 | 42 | 7.8 | 11.3 | 0.00 | 0.00 | 0.00 | 63 | 1011.7 |
| 20260906194004 | 79 | 8 | 4.3 | 5.2 | 0.00 | 0.00 | 0.00 | 63 | 1011.7 |
| 20260906193504 | 79 | 83 | 6.1 | 7.0 | 0.00 | 0.00 | 0.00 | 62 | 1011.4 |
| 20260906192959 | 80 | 0 | 5.2 | 8.7 | 0.00 | 0.00 | 0.00 | 61 | 1011.6 |
| 20260906192454 | 79 | 350 | 4.3 | 8.7 | 0.00 | 0.00 | 0.00 | 63 | 1011.7 |
| 20260906191953 | 79 | 5 | 6.1 | 10.4 | 0.00 | 0.00 | 0.00 | 64 | 1011.9 |
| 20260906191448 | 80 | 356 | 5.2 | 12.2 | 0.00 | 0.00 | 0.00 | 61 | 1011.9 |
| 20260906190948 | 78 | 18 | 3.5 | 7.0 | 0.00 | 0.00 | 0.00 | 64 | 1011.7 |
| 20260906190446 | 79 | 22 | 7.0 | 7.8 | 0.00 | 0.00 | 0.00 | 63 | 1011.8 |
| 20260906185942 | 79 | 3 | 5.2 | 7.0 | 0.00 | 0.00 | 0.00 | 64 | 1011.8 |
| 20260906185441 | 77 | 23 | 3.5 | 7.0 | 0.00 | 0.00 | 0.00 | 67 | 1011.7 |
| 20260906184940 | 78 | 28 | 6.1 | 8.7 | 0.00 | 0.00 | 0.00 | 65 | 1012.1 |
| 20260906184436 | 78 | 351 | 5.2 | 6.1 | 0.00 | 0.00 | 0.00 | 66 | 1012.0 |
| 20260906183931 | 77 | 9 | 7.8 | 7.8 | 0.00 | 0.00 | 0.00 | 67 | 1011.9 |
| 20260906183427 | 78 | 349 | 7.0 | 9.6 | 0.00 | 0.00 | 0.00 | 65 | 1011.9 |
| 20260906182922 | 79 | 335 | 7.8 | 8.7 | 0.00 | 0.00 | 0.00 | 64 | 1012.1 |
| 20260906182417 | 79 | 339 | 7.0 | 9.6 | 0.00 | 0.00 | 0.00 | 64 | 1011.9 |
| 20260906181913 | 79 | 1 | 8.7 | 10.4 | 0.00 | 0.00 | 0.00 | 63 | 1011.7 |
| 20260906181409 | 79 | 1 | 8.7 | 13.9 | 0.00 | 0.00 | 0.00 | 64 | 1012.2 |
| 20260906180904 | 79 | 12 | 4.3 | 9.6 | 0.00 | 0.00 | 0.00 | 64 | 1012.3 |
| 20260906180359 | 78 | 341 | 3.5 | 6.1 | 0.00 | 0.00 | 0.00 | 65 | 1012.2 |
| 20260906175856 | 78 | 1 | 8.7 | 8.7 | 0.00 | 0.00 | 0.00 | 66 | 1012.4 |
| 20260906175352 | 77 | 78 | 2.6 | 5.2 | 0.00 | 0.00 | 0.00 | 68 | 1012.6 |
| 20260906174851 | 76 | 28 | 2.6 | 5.2 | 0.00 | 0.00 | 0.00 | 70 | 1012.7 |
| 20260906174350 | 75 | 0 | 2.6 | 6.1 | 0.00 | 0.00 | 0.00 | 71 | 1012.8 |
| 20260906173845 | 75 | 29 | 5.2 | 8.7 | 0.00 | 0.00 | 0.00 | 71 | 1012.7 |
| 20260906173341 | 75 | 50 | 9.6 | 10.4 | 0.00 | 0.00 | 0.00 | 71 | 1012.9 |
| 20260906172840 | 75 | 14 | 5.2 | 9.6 | 0.00 | 0.00 | 0.00 | 71 | 1012.7 |
| 20260906172336 | 74 | 34 | 7.0 | 9.6 | 0.00 | 0.00 | 0.00 | 73 | 1012.9 |
| 20260906171831 | 74 | 36 | 7.8 | 9.6 | 0.00 | 0.00 | 0.00 | 74 | 1013.4 |
| 20260906171326 | 74 | 36 | 7.8 | 8.7 | 0.00 | 0.00 | 0.00 | 74 | 1013.3 |
| 20260906170822 | 73 | 43 | 5.2 | 8.7 | 0.00 | 0.00 | 0.00 | 75 | 1013.4 |
| 20260906170318 | 73 | 21 | 5.2 | 7.0 | 0.00 | 0.00 | 0.00 | 75 | 1013.7 |
| 20260906165814 | 73 | 5 | 5.2 | 8.7 | 0.00 | 0.00 | 0.00 | 76 | 1013.4 |
| 20260906165313 | 73 | 5 | 6.1 | 7.8 | 0.00 | 0.00 | 0.00 | 76 | 1013.5 |
| 20260906164814 | 73 | 18 | 5.2 | 9.6 | 0.00 | 0.00 | 0.00 | 76 | 1013.5 |
| 20260906164308 | 73 | 25 | 7.8 | 10.4 | 0.00 | 0.00 | 0.00 | 76 | 1013.5 |
| 20260906163804 | 73 | 19 | 8.7 | 9.6 | 0.00 | 0.00 | 0.00 | 75 | 1013.2 |
| 20260906163300 | 73 | 18 | 5.2 | 9.6 | 0.00 | 0.00 | 0.00 | 76 | 1013.3 |
| 20260906162757 | 73 | 20 | 6.1 | 11.3 | 0.00 | 0.00 | 0.00 | 76 | 1013.1 |
| 20260906162256 | 72 | 22 | 10.4 | 11.3 | 0.00 | 0.00 | 0.00 | 77 | 1013.2 |
| 20260906161756 | 72 | 30 | 7.8 | 8.7 | 0.00 | 0.00 | 0.00 | 77 | 1013.4 |
| 20260906161255 | 72 | 43 | 10.4 | 11.3 | 0.00 | 0.00 | 0.00 | 78 | 1013.1 |
| 20260906160754 | 72 | 19 | 5.2 | 7.0 | 0.00 | 0.00 | 0.00 | 78 | 1013.4 |
| 20260906160249 | 71 | 21 | 6.1 | 7.0 | 0.00 | 0.00 | 0.00 | 78 | 1013.6 |
| 20260906155747 | 71 | 20 | 6.1 | 8.7 | 0.00 | 0.00 | 0.00 | 79 | 1013.4 |
| 20260906155242 | 71 | 358 | 7.8 | 9.6 | 0.00 | 0.00 | 0.00 | 78 | 1013.2 |
| 20260906154737 | 71 | 17 | 7.8 | 10.4 | 0.00 | 0.00 | 0.00 | 78 | 1012.8 |
| 20260906154232 | 72 | 6 | 9.6 | 11.3 | 0.00 | 0.00 | 0.00 | 76 | 1012.8 |
| 20260906153730 | 72 | 359 | 5.2 | 10.4 | 0.00 | 0.00 | 0.00 | 78 | 1012.9 |
| 20260906153220 | 71 | 345 | 7.0 | 9.6 | 0.00 | 0.00 | 0.00 | 78 | 1013.1 |
| 20260906152715 | 71 | 349 | 4.3 | 9.6 | 0.00 | 0.00 | 0.00 | 78 | 1013.2 |
| 20260906152215 | 71 | 3 | 5.2 | 7.8 | 0.00 | 0.00 | 0.00 | 79 | 1013.3 |
| 20260906151709 | 71 | 12 | 4.3 | 7.0 | 0.00 | 0.00 | 0.00 | 80 | 1013.2 |
| 20260906151205 | 71 | 12 | 5.2 | 7.0 | 0.00 | 0.00 | 0.00 | 81 | 1013.3 |
| 20260906150700 | 71 | 6 | 6.1 | 7.8 | 0.00 | 0.00 | 0.00 | 80 | 1013.4 |
| 20260906150155 | 70 | 346 | 7.0 | 7.8 | 0.00 | 0.00 | 0.00 | 81 | 1013.3 |
| 20260906145654 | 70 | 351 | 7.0 | 9.6 | 0.00 | 0.00 | 0.00 | 81 | 1013.5 |
| 20260906145154 | 70 | 336 | 8.7 | 10.4 | 0.00 | 0.00 | 0.00 | 81 | 1013.3 |
| 20260906144654 | 69 | 344 | 7.0 | 7.8 | 0.00 | 0.00 | 0.00 | 82 | 1013.6 |
| 20260906144149 | 69 | 349 | 4.3 | 6.1 | 0.00 | 0.00 | 0.00 | 82 | 1013.6 |
| 20260906143649 | 69 | 342 | 6.1 | 7.0 | 0.00 | 0.00 | 0.00 | 82 | 1013.7 |
| 20260906143146 | 69 | 340 | 5.2 | 5.2 | 0.00 | 0.00 | 0.00 | 83 | 1013.4 |
| 20260906142645 | 69 | 348 | 5.2 | 7.0 | 0.00 | 0.00 | 0.00 | 83 | 1013.7 |
| 20260906142141 | 69 | 343 | 7.0 | 7.8 | 0.00 | 0.00 | 0.00 | 83 | 1013.7 |
| 20260906141639 | 69 | 350 | 4.3 | 5.2 | 0.00 | 0.00 | 0.00 | 84 | 1013.7 |
| 20260906141135 | 69 | 348 | 5.2 | 6.1 | 0.00 | 0.00 | 0.00 | 84 | 1013.7 |
| 20260906140634 | 68 | 351 | 5.2 | 7.0 | 0.00 | 0.00 | 0.00 | 84 | 1013.7 |
| 20260906140129 | 69 | 346 | 4.3 | 6.1 | 0.00 | 0.00 | 0.00 | 85 | 1013.6 |
| 20260906135626 | 68 | 352 | 5.2 | 6.1 | 0.00 | 0.00 | 0.00 | 85 | 1013.5 |
| 20260906135122 | 68 | 355 | 5.2 | 5.2 | 0.00 | 0.00 | 0.00 | 86 | 1013.4 |
| 20260906134617 | 68 | 334 | 1.7 | 3.5 | 0.00 | 0.00 | 0.00 | 87 | 1013.5 |
| 20260906134112 | 67 | 348 | 2.6 | 4.3 | 0.00 | 0.00 | 0.00 | 87 | 1013.3 |
| 20260906133608 | 67 | 316 | 3.5 | 4.3 | 0.00 | 0.00 | 0.00 | 87 | 1013.4 |
| 20260906133103 | 67 | 318 | 1.7 | 2.6 | 0.00 | 0.00 | 0.00 | 88 | 1013.4 |
| 20260906132558 | 67 | 301 | 2.6 | 2.6 | 0.00 | 0.00 | 0.00 | 89 | 1013.4 |
| 20260906132054 | 67 | 316 | 1.7 | 3.5 | 0.00 | 0.00 | 0.00 | 89 | 1013.3 |
| 20260906131549 | 66 | 327 | 2.6 | 3.5 | 0.00 | 0.00 | 0.00 | 90 | 1013.6 |
| 20260906131044 | 66 | 221 | 0.0 | 1.7 | 0.00 | 0.00 | 0.00 | 89 | 1013.5 |
| 20260906130544 | 66 | 209 | 0.9 | 0.9 | 0.00 | 0.00 | 0.00 | 89 | 1013.5 |
| 20260906130039 | 66 | 249 | 1.7 | 2.6 | 0.00 | 0.00 | 0.00 | 89 | 1013.5 |
| 20260906125537 | 66 | 217 | 1.7 | 2.6 | 0.00 | 0.00 | 0.00 | 89 | 1013.4 |
| 20260906125036 | 67 | 216 | 3.5 | 3.5 | 0.00 | 0.00 | 0.00 | 89 | 1013.7 |
| 20260906124532 | 67 | 218 | 2.6 | 3.5 | 0.00 | 0.00 | 0.00 | 87 | 1013.6 |
| 20260906124027 | 67 | 206 | 2.6 | 3.5 | 0.00 | 0.00 | 0.00 | 88 | 1013.3 |
| 20260906123526 | 67 | 228 | 1.7 | 1.7 | 0.00 | 0.00 | 0.00 | 88 | 1013.1 |
| 20260906123021 | 67 | 262 | 2.6 | 5.2 | 0.00 | 0.00 | 0.00 | 88 | 1013.2 |
| 20260906122521 | 67 | 229 | 3.5 | 3.5 | 0.00 | 0.00 | 0.00 | 87 | 1012.8 |
| 20260906122017 | 67 | 221 | 3.5 | 5.2 | 0.00 | 0.00 | 0.00 | 87 | 1012.3 |
| 20260906121513 | 67 | 3 | 5.2 | 13.0 | 0.00 | 0.00 | 0.00 | 87 | 1011.9 |
| 20260906121010 | 67 | 32 | 8.7 | 14.8 | 0.00 | 0.00 | 0.00 | 88 | 1011.4 |
| 20260906120509 | 67 | 15 | 13.0 | 17.4 | 0.00 | 0.00 | 0.00 | 88 | 1011.2 |
| 20260906120008 | 67 | 20 | 12.2 | 17.4 | 0.00 | 0.00 | 0.00 | 87 | 1010.6 |
| 20260906115502 | 68 | 18 | 13.0 | 14.8 | 0.00 | 0.00 | 0.00 | 84 | 1011.8 |
| 20260906115001 | 68 | 19 | 5.2 | 6.1 | 0.00 | 0.00 | 0.00 | 84 | 1013.2 |
| 20260906114456 | 68 | 114 | 2.6 | 5.2 | 0.00 | 0.00 | 0.00 | 84 | 1013.7 |
| 20260906113952 | 68 | 160 | 3.5 | 3.5 | 0.00 | 0.00 | 0.00 | 84 | 1013.6 |
| 20260906113451 | 68 | 12 | 4.3 | 12.2 | 0.00 | 0.00 | 0.00 | 84 | 1012.5 |
| 20260906112946 | 67 | 15 | 10.4 | 14.8 | 0.00 | 0.00 | 0.00 | 85 | 1011.8 |
| 20260906112441 | 67 | 16 | 13.0 | 16.5 | 0.00 | 0.00 | 0.00 | 85 | 1011.7 |
| 20260906111937 | 67 | 17 | 13.0 | 13.9 | 0.00 | 0.00 | 0.00 | 85 | 1011.8 |
| 20260906111436 | 67 | 359 | 10.4 | 15.6 | 0.00 | 0.00 | 0.00 | 85 | 1012.0 |
| 20260906110931 | 67 | 7 | 8.7 | 12.2 | 0.00 | 0.00 | 0.00 | 84 | 1012.4 |
| 20260906110427 | 67 | 349 | 13.9 | 14.8 | 0.00 | 0.00 | 0.00 | 84 | 1012.5 |
| 20260906105926 | 67 | 7 | 13.0 | 13.9 | 0.00 | 0.00 | 0.00 | 84 | 1012.4 |
| 20260906105422 | 67 | 0 | 7.0 | 11.3 | 0.00 | 0.00 | 0.00 | 83 | 1013.2 |
| 20260906104918 | 67 | 357 | 7.8 | 10.4 | 0.00 | 0.00 | 0.00 | 84 | 1013.8 |
| 20260906104416 | 67 | 348 | 5.2 | 7.8 | 0.00 | 0.00 | 0.00 | 84 | 1014.0 |
| 20260906103915 | 67 | 333 | 5.2 | 7.8 | 0.00 | 0.00 | 0.00 | 84 | 1014.2 |
| 20260906103414 | 67 | 346 | 6.1 | 9.6 | 0.00 | 0.00 | 0.00 | 84 | 1014.4 |
| 20260906102910 | 67 | 336 | 6.1 | 7.8 | 0.00 | 0.00 | 0.00 | 84 | 1014.7 |
| 20260906102409 | 67 | 319 | 7.0 | 8.7 | 0.00 | 0.00 | 0.00 | 83 | 1014.5 |
| 20260906101904 | 67 | 339 | 9.6 | 15.6 | 0.00 | 0.00 | 0.00 | 83 | 1013.7 |
| 20260906101359 | 68 | 342 | 15.6 | 15.6 | 0.00 | 0.00 | 0.00 | 82 | 1013.2 |
| 20260906100854 | 68 | 346 | 10.4 | 16.5 | 0.00 | 0.00 | 0.00 | 81 | 1012.9 |
| 20260906100353 | 68 | 341 | 9.6 | 11.3 | 0.00 | 0.00 | 0.00 | 81 | 1013.8 |
| 20260906095848 | 68 | 306 | 8.7 | 9.6 | 0.00 | 0.00 | 0.00 | 81 | 1014.4 |
| 20260906095344 | 68 | 292 | 6.1 | 7.8 | 0.00 | 0.00 | 0.00 | 81 | 1014.9 |
| 20260906094843 | 68 | 291 | 4.3 | 6.1 | 0.00 | 0.00 | 0.00 | 81 | 1015.1 |
| 20260906094339 | 68 | 289 | 4.3 | 8.7 | 0.00 | 0.00 | 0.00 | 81 | 1015.1 |
| 20260906093835 | 68 | 280 | 6.1 | 8.7 | 0.00 | 0.00 | 0.00 | 81 | 1015.3 |
| 20260906093331 | 68 | 253 | 3.5 | 7.0 | 0.00 | 0.00 | 0.00 | 82 | 1015.1 |
| 20260906092825 | 67 | 273 | 5.2 | 9.6 | 0.00 | 0.00 | 0.00 | 83 | 1015.2 |
| 20260906092325 | 67 | 232 | 1.7 | 3.5 | 0.00 | 0.00 | 0.00 | 83 | 1014.9 |
| 20260906091821 | 67 | 289 | 3.5 | 5.2 | 0.00 | 0.00 | 0.00 | 84 | 1014.5 |
| 20260906091317 | 66 | 296 | 4.3 | 5.2 | 0.00 | 0.00 | 0.00 | 83 | 1014.7 |
| 20260906090813 | 67 | 282 | 3.5 | 5.2 | 0.00 | 0.00 | 0.00 | 84 | 1014.5 |
| 20260906090312 | 66 | 283 | 3.5 | 6.1 | 0.00 | 0.00 | 0.00 | 84 | 1014.5 |
| 20260906085807 | 66 | 278 | 4.3 | 6.1 | 0.00 | 0.00 | 0.00 | 85 | 1014.3 |
| 20260906085307 | 66 | 273 | 4.3 | 6.1 | 0.00 | 0.00 | 0.00 | 85 | 1014.0 |
| 20260906084801 | 66 | 278 | 5.2 | 5.2 | 0.00 | 0.00 | 0.00 | 84 | 1013.7 |
| 20260906084300 | 67 | 305 | 5.2 | 7.0 | 0.00 | 0.00 | 0.00 | 83 | 1013.4 |
| 20260906083755 | 67 | 340 | 5.2 | 7.0 | 0.00 | 0.00 | 0.00 | 83 | 1013.5 |
| 20260906083251 | 67 | 350 | 6.1 | 6.1 | 0.00 | 0.00 | 0.00 | 83 | 1013.4 |
| 20260906082745 | 67 | 6 | 4.3 | 7.8 | 0.00 | 0.00 | 0.00 | 82 | 1013.2 |
| 20260906082240 | 67 | 13 | 7.0 | 10.4 | 0.00 | 0.00 | 0.00 | 82 | 1012.8 |
| 20260906081736 | 67 | 21 | 6.1 | 8.7 | 0.00 | 0.00 | 0.00 | 82 | 1012.8 |
| 20260906081231 | 68 | 16 | 7.0 | 8.7 | 0.00 | 0.00 | 0.00 | 82 | 1012.7 |
| 20260906080728 | 67 | 24 | 7.8 | 11.3 | 0.00 | 0.00 | 0.00 | 82 | 1012.8 |
| 20260906080224 | 68 | 9 | 4.3 | 8.7 | 0.00 | 0.00 | 0.00 | 81 | 1013.1 |
| 20260906075724 | 68 | 11 | 7.0 | 9.6 | 0.00 | 0.00 | 0.00 | 81 | 1013.2 |
| 20260906075224 | 68 | 6 | 6.1 | 10.4 | 0.00 | 0.00 | 0.00 | 81 | 1013.3 |
| 20260906074719 | 68 | 3 | 6.1 | 9.6 | 0.00 | 0.00 | 0.00 | 81 | 1013.1 |
| 20260906074218 | 68 | 6 | 6.1 | 9.6 | 0.00 | 0.00 | 0.00 | 81 | 1013.3 |
| 20260906073713 | 68 | 5 | 7.8 | 9.6 | 0.00 | 0.00 | 0.00 | 81 | 1013.1 |
| 20260906073208 | 68 | 11 | 7.0 | 10.4 | 0.00 | 0.00 | 0.00 | 81 | 1013.1 |
| 20260906072704 | 68 | 14 | 7.0 | 10.4 | 0.00 | 0.00 | 0.00 | 80 | 1013.1 |
| 20260906072159 | 68 | 14 | 7.0 | 9.6 | 0.00 | 0.00 | 0.00 | 80 | 1013.4 |
| 20260906071655 | 68 | 12 | 7.0 | 8.7 | 0.00 | 0.00 | 0.00 | 80 | 1013.5 |
| 20260906071154 | 68 | 9 | 4.3 | 8.7 | 0.00 | 0.00 | 0.00 | 79 | 1013.5 |
| 20260906070651 | 68 | 6 | 4.3 | 11.3 | 0.00 | 0.00 | 0.00 | 79 | 1013.5 |
| 20260906070147 | 68 | 10 | 7.0 | 9.6 | 0.00 | 0.00 | 0.00 | 79 | 1013.3 |
| 20260906065646 | 68 | 7 | 7.0 | 11.3 | 0.00 | 0.00 | 0.00 | 79 | 1013.3 |
| 20260906065142 | 68 | 15 | 7.0 | 8.7 | 0.00 | 0.00 | 0.00 | 78 | 1013.4 |
| 20260906064637 | 69 | 15 | 6.1 | 10.4 | 0.00 | 0.00 | 0.00 | 78 | 1013.4 |
| 20260906064133 | 69 | 4 | 7.0 | 10.4 | 0.00 | 0.00 | 0.00 | 77 | 1013.3 |
| 20260906063628 | 69 | 10 | 6.1 | 9.6 | 0.00 | 0.00 | 0.00 | 77 | 1013.3 |
| 20260906063124 | 69 | 19 | 7.8 | 9.6 | 0.00 | 0.00 | 0.00 | 77 | 1013.5 |
| 20260906062619 | 69 | 9 | 7.8 | 10.4 | 0.00 | 0.00 | 0.00 | 77 | 1013.5 |
| 20260906062118 | 69 | 10 | 6.1 | 10.4 | 0.00 | 0.00 | 0.00 | 77 | 1013.8 |
| 20260906061614 | 69 | 7 | 7.8 | 8.7 | 0.00 | 0.00 | 0.00 | 76 | 1013.8 |
| 20260906061114 | 69 | 13 | 7.0 | 9.6 | 0.00 | 0.00 | 0.00 | 76 | 1013.7 |
| 20260906060611 | 70 | 2 | 6.1 | 9.6 | 0.00 | 0.00 | 0.00 | 75 | 1013.6 |
| 20260906060108 | 70 | 15 | 9.6 | 10.4 | 0.00 | 0.00 | 0.00 | 75 | 1013.7 |
| 20260906055603 | 70 | 0 | 8.7 | 9.6 | 0.00 | 0.00 | 0.00 | 74 | 1013.7 |
| 20260906055058 | 70 | 10 | 7.8 | 11.3 | 0.00 | 0.00 | 0.00 | 74 | 1013.7 |
| 20260906054558 | 70 | 10 | 7.8 | 9.6 | 0.00 | 0.00 | 0.00 | 73 | 1013.7 |
| 20260906054053 | 70 | 7 | 9.6 | 10.4 | 0.00 | 0.00 | 0.00 | 73 | 1013.6 |
| 20260906053550 | 71 | 7 | 8.7 | 10.4 | 0.00 | 0.00 | 0.00 | 72 | 1013.7 |
| 20260906053045 | 71 | 0 | 8.7 | 12.2 | 0.00 | 0.00 | 0.00 | 72 | 1013.8 |
| 20260906052540 | 71 | 2 | 9.6 | 11.3 | 0.00 | 0.00 | 0.00 | 72 | 1013.8 |
| 20260906052038 | 71 | 2 | 7.8 | 10.4 | 0.00 | 0.00 | 0.00 | 71 | 1013.6 |
| 20260906051533 | 71 | 6 | 7.0 | 11.3 | 0.00 | 0.00 | 0.00 | 71 | 1013.9 |
| 20260906051028 | 71 | 0 | 8.7 | 11.3 | 0.00 | 0.00 | 0.00 | 71 | 1014.0 |
| 20260906050523 | 71 | 1 | 7.8 | 10.4 | 0.00 | 0.00 | 0.00 | 71 | 1013.7 |
| 20260906050018 | 71 | 6 | 8.7 | 12.2 | 0.00 | 0.00 | 0.00 | 71 | 1014.0 |
| 20260906045516 | 71 | 1 | 8.7 | 11.3 | 0.00 | 0.00 | 0.00 | 70 | 1014.0 |
| 20260906045012 | 71 | 6 | 10.4 | 13.0 | 0.00 | 0.00 | 0.00 | 70 | 1013.9 |
| 20260906044507 | 71 | 19 | 9.6 | 13.0 | 0.00 | 0.00 | 0.00 | 69 | 1014.0 |
| 20260906044003 | 71 | 12 | 8.7 | 15.6 | 0.00 | 0.00 | 0.00 | 69 | 1014.2 |
| 20260906043458 | 71 | 5 | 7.8 | 13.9 | 0.00 | 0.00 | 0.00 | 69 | 1014.1 |
| 20260906042954 | 72 | 0 | 9.6 | 14.8 | 0.00 | 0.00 | 0.00 | 68 | 1014.3 |
| 20260906042453 | 72 | 13 | 12.2 | 16.5 | 0.00 | 0.00 | 0.00 | 68 | 1014.0 |
| 20260906041953 | 72 | 15 | 10.4 | 13.9 | 0.00 | 0.00 | 0.00 | 68 | 1014.2 |
| 20260906041450 | 72 | 15 | 9.6 | 13.0 | 0.00 | 0.00 | 0.00 | 67 | 1014.2 |
| 20260906040949 | 72 | 2 | 9.6 | 12.2 | 0.00 | 0.00 | 0.00 | 67 | 1014.0 |
| 20260906040444 | 72 | 3 | 11.3 | 13.0 | 0.00 | 0.00 | 0.00 | 66 | 1014.3 |
| 20260906035939 | 72 | 4 | 8.7 | 13.0 | 0.00 | 0.00 | 0.00 | 66 | 1014.3 |
| 20260906035435 | 73 | 10 | 7.0 | 13.9 | 0.00 | 0.00 | 0.00 | 66 | 1014.0 |
| 20260906034930 | 73 | 8 | 10.4 | 13.0 | 0.00 | 0.00 | 0.00 | 65 | 1014.1 |
| 20260906034425 | 73 | 21 | 9.6 | 16.5 | 0.00 | 0.00 | 0.00 | 65 | 1014.1 |
| 20260906033920 | 73 | 7 | 11.3 | 14.8 | 0.00 | 0.00 | 0.00 | 64 | 1014.2 |
| 20260906033420 | 73 | 6 | 11.3 | 16.5 | 0.00 | 0.00 | 0.00 | 64 | 1014.2 |
| 20260906032916 | 73 | 7 | 11.3 | 13.9 | 0.00 | 0.00 | 0.00 | 63 | 1014.2 |
| 20260906032413 | 73 | 9 | 11.3 | 13.0 | 0.00 | 0.00 | 0.00 | 63 | 1014.2 |
| 20260906031913 | 73 | 9 | 10.4 | 11.3 | 0.00 | 0.00 | 0.00 | 63 | 1014.3 |
| 20260906031409 | 73 | 13 | 9.6 | 14.8 | 0.00 | 0.00 | 0.00 | 63 | 1014.3 |
| 20260906030909 | 73 | 16 | 7.8 | 12.2 | 0.00 | 0.00 | 0.00 | 63 | 1014.2 |
| 20260906030404 | 73 | 2 | 13.0 | 13.0 | 0.00 | 0.00 | 0.00 | 63 | 1014.2 |
| 20260906025858 | 73 | 351 | 10.4 | 13.0 | 0.00 | 0.00 | 0.00 | 63 | 1014.2 |
| 20260906025353 | 72 | 359 | 9.6 | 13.0 | 0.00 | 0.00 | 0.00 | 63 | 1014.0 |
| 20260906024852 | 72 | 1 | 9.6 | 15.6 | 0.00 | 0.00 | 0.00 | 64 | 1014.0 |
| 20260906024351 | 72 | 5 | 8.7 | 13.0 | 0.00 | 0.00 | 0.00 | 64 | 1013.9 |
| 20260906023846 | 72 | 355 | 10.4 | 14.8 | 0.00 | 0.00 | 0.00 | 63 | 1013.8 |
| 20260906023342 | 72 | 0 | 10.4 | 14.8 | 0.00 | 0.00 | 0.00 | 62 | 1013.8 |
| 20260906022837 | 72 | 0 | 10.4 | 13.9 | 0.00 | 0.00 | 0.00 | 62 | 1013.7 |
| 20260906022337 | 73 | 0 | 10.4 | 15.6 | 0.00 | 0.00 | 0.00 | 62 | 1013.4 |
| 20260906021833 | 73 | 352 | 7.8 | 11.3 | 0.00 | 0.00 | 0.00 | 62 | 1013.5 |
| 20260906021333 | 73 | 346 | 13.0 | 14.8 | 0.00 | 0.00 | 0.00 | 61 | 1013.6 |
| 20260906020828 | 73 | 348 | 10.4 | 13.0 | 0.00 | 0.00 | 0.00 | 61 | 1013.4 |
| 20260906020327 | 73 | 344 | 8.7 | 12.2 | 0.00 | 0.00 | 0.00 | 60 | 1013.4 |
| 20260906015822 | 74 | 347 | 7.0 | 13.0 | 0.00 | 0.00 | 0.00 | 60 | 1013.4 |
| 20260906015321 | 74 | 344 | 7.8 | 13.0 | 0.00 | 0.00 | 0.00 | 60 | 1013.4 |
| 20260906014820 | 74 | 344 | 7.0 | 11.3 | 0.00 | 0.00 | 0.00 | 59 | 1013.5 |
| 20260906014316 | 75 | 344 | 7.8 | 12.2 | 0.00 | 0.00 | 0.00 | 59 | 1013.5 |
| 20260906013812 | 75 | 351 | 11.3 | 12.2 | 0.00 | 0.00 | 0.00 | 58 | 1013.4 |
| 20260906013307 | 75 | 343 | 9.6 | 11.3 | 0.00 | 0.00 | 0.00 | 58 | 1013.6 |
| 20260906012802 | 76 | 341 | 7.0 | 12.2 | 0.00 | 0.00 | 0.00 | 57 | 1013.3 |
| 20260906012257 | 76 | 343 | 7.0 | 8.7 | 0.00 | 0.00 | 0.00 | 56 | 1013.4 |
| 20260906011752 | 77 | 329 | 9.6 | 14.8 | 0.00 | 0.00 | 0.00 | 55 | 1013.4 |
| 20260906011252 | 78 | 334 | 9.6 | 12.2 | 0.00 | 0.00 | 0.00 | 53 | 1012.9 |
| 20260906010748 | 79 | 329 | 10.4 | 13.9 | 0.00 | 0.00 | 0.00 | 52 | 1012.8 |
| 20260906010244 | 79 | 327 | 10.4 | 13.0 | 0.00 | 0.00 | 0.00 | 52 | 1013.4 |
| 20260906005739 | 79 | 340 | 10.4 | 11.3 | 0.00 | 0.00 | 0.00 | 51 | 1012.8 |
| 20260906005238 | 80 | 334 | 11.3 | 14.8 | 0.00 | 0.00 | 0.00 | 51 | 1012.8 |
| 20260906004737 | 80 | 334 | 11.3 | 14.8 | 0.00 | 0.00 | 0.00 | 51 | 1013.1 |
| 20260906004233 | 80 | 324 | 9.6 | 13.9 | 0.00 | 0.00 | 0.00 | 51 | 1012.9 |
| 20260906003733 | 80 | 336 | 8.7 | 15.6 | 0.00 | 0.00 | 0.00 | 50 | 1012.8 |
| 20260906003229 | 81 | 334 | 7.8 | 13.9 | 0.00 | 0.00 | 0.00 | 50 | 1012.7 |
| 20260906002728 | 82 | 324 | 10.4 | 12.2 | 0.00 | 0.00 | 0.00 | 49 | 1012.7 |
| 20260906002229 | 82 | 318 | 9.6 | 10.4 | 0.00 | 0.00 | 0.00 | 49 | 1012.7 |
| 20260906001724 | 82 | 345 | 7.8 | 10.4 | 0.00 | 0.00 | 0.00 | 49 | 1012.7 |
| 20260906001219 | 82 | 298 | 8.7 | 11.3 | 0.00 | 0.00 | 0.00 | 49 | 1012.7 |
| 20260906000714 | 82 | 307 | 12.2 | 13.9 | 0.00 | 0.00 | 0.00 | 48 | 1012.5 |
| 20260906000211 | 82 | 302 | 7.8 | 12.2 | 0.00 | 0.00 | 0.00 | 49 | 1012.6 |
| 20260905235709 | 83 | 301 | 8.7 | 12.2 | 0.00 | 0.00 | 0.00 | 48 | 1012.5 |
| 20260905235204 | 83 | 301 | 7.0 | 9.6 | 0.00 | 0.00 | 0.00 | 48 | 1012.7 |
| 20260905234659 | 82 | 306 | 7.8 | 10.4 | 0.00 | 0.00 | 0.00 | 49 | 1012.8 |
| 20260905234154 | 82 | 299 | 7.8 | 8.7 | 0.00 | 0.00 | 0.00 | 49 | 1012.7 |
| 20260905233649 | 81 | 291 | 5.2 | 7.8 | 0.00 | 0.00 | 0.00 | 50 | 1012.5 |
| 20260905233149 | 82 | 294 | 7.8 | 7.8 | 0.00 | 0.00 | 0.00 | 50 | 1012.7 |
| 20260905232644 | 81 | 305 | 7.8 | 10.4 | 0.00 | 0.00 | 0.00 | 50 | 1012.6 |
| 20260905232140 | 81 | 298 | 6.1 | 11.3 | 0.00 | 0.00 | 0.00 | 50 | 1012.7 |
| 20260905231635 | 81 | 283 | 6.1 | 8.7 | 0.00 | 0.00 | 0.00 | 50 | 1012.8 |
| 20260905231131 | 82 | 309 | 8.7 | 11.3 | 0.00 | 0.00 | 0.00 | 50 | 1012.6 |
| 20260905230627 | 82 | 309 | 7.8 | 9.6 | 0.00 | 0.00 | 0.00 | 51 | 1012.5 |
| 20260905230125 | 82 | 320 | 5.2 | 8.7 | 0.00 | 0.00 | 0.00 | 52 | 1012.5 |
| 20260905225624 | 82 | 328 | 5.2 | 10.4 | 0.00 | 0.00 | 0.00 | 51 | 1012.3 |
| 20260905225120 | 82 | 301 | 5.2 | 7.8 | 0.00 | 0.00 | 0.00 | 51 | 1012.4 |
| 20260905224619 | 82 | 310 | 5.2 | 6.1 | 0.00 | 0.00 | 0.00 | 52 | 1012.6 |
| 20260905224119 | 82 | 299 | 3.5 | 5.2 | 0.00 | 0.00 | 0.00 | 52 | 1012.7 |
| 20260905223616 | 82 | 318 | 7.8 | 9.6 | 0.00 | 0.00 | 0.00 | 52 | 1012.7 |
| 20260905223112 | 82 | 320 | 7.0 | 7.8 | 0.00 | 0.00 | 0.00 | 52 | 1012.7 |
| 20260905222612 | 82 | 341 | 3.5 | 7.0 | 0.00 | 0.00 | 0.00 | 53 | 1012.6 |
| 20260905222108 | 82 | 331 | 4.3 | 7.8 | 0.00 | 0.00 | 0.00 | 52 | 1012.8 |
| 20260905221603 | 82 | 317 | 3.5 | 7.0 | 0.00 | 0.00 | 0.00 | 52 | 1012.7 |
| 20260905221100 | 82 | 337 | 5.2 | 10.4 | 0.00 | 0.00 | 0.00 | 52 | 1012.8 |
| 20260905220555 | 82 | 310 | 8.7 | 11.3 | 0.00 | 0.00 | 0.00 | 51 | 1012.6 |